Time;durP1;ratioP1;P1;durP2;ratioP2;P2;SDS_P1;SDS_P2;PMS_P1;PMS_P2;Temp;Humidity;BMP_temperature;BMP_pressure;BME280_temperature;BME280_humidity;BME280_pressure;Samples;Min_cycle;Max_cycle;Signal;HPM_P1;HPM_P2
2021/01/16 00:00:09;;;;;;;;;;;5.00;70.70;;;;;;4922933;28;117820;-91
2021/01/16 00:02:34;;;;;;;;;;;5.00;70.70;;;;;;4924387;28;120440;-91
2021/01/16 00:05:00;;;;;;;;;;;5.00;70.80;;;;;;4925068;28;117596;-91
2021/01/16 00:07:25;;;;;;;;;;;5.00;70.90;;;;;;4924921;28;117379;-91
2021/01/16 00:09:51;;;;;;;;;;;5.00;70.90;;;;;;4924288;28;119944;-91
2021/01/16 00:12:56;;;;;;;;;;;5.00;70.80;;;;;;4924300;28;119219;-91
2021/01/16 00:15:22;;;;;;;;;;;5.00;70.80;;;;;;4939718;28;116844;-91
2021/01/16 00:18:04;;;;;;;;;;;5.00;70.80;;;;;;4925350;28;117500;-91
2021/01/16 00:20:30;;;;;;;;;;;5.00;70.80;;;;;;4924042;28;121273;-91
2021/01/16 00:22:55;;;;;;;;;;;5.00;70.80;;;;;;4924175;28;120154;-91
2021/01/16 00:25:21;;;;;;;;;;;5.00;70.80;;;;;;4924878;28;117437;-91
2021/01/16 00:27:47;;;;;;;;;;;5.00;70.90;;;;;;4925192;28;117850;-91
2021/01/16 00:30:13;;;;;;;;;;;5.00;70.90;;;;;;4924155;28;119796;-91
2021/01/16 00:32:38;;;;;;;;;;;5.00;70.90;;;;;;4923878;28;120372;-91
2021/01/16 00:35:08;;;;;;;;;;;5.00;70.80;;;;;;4924617;28;117270;-91
2021/01/16 00:37:33;;;;;;;;;;;5.00;70.90;;;;;;4925087;28;116827;-91
2021/01/16 00:39:59;;;;;;;;;;;5.00;70.80;;;;;;4923815;28;121529;-91
2021/01/16 00:42:25;;;;;;;;;;;5.00;70.90;;;;;;4924011;28;119283;-91
2021/01/16 00:44:50;;;;;;;;;;;5.00;70.90;;;;;;4924414;28;117517;-91
2021/01/16 00:47:19;;;;;;;;;;;5.00;70.90;;;;;;4924495;28;116993;-91
2021/01/16 00:49:44;;;;;;;;;;;5.00;70.80;;;;;;4923878;28;120039;-91
2021/01/16 00:52:10;;;;;;;;;;;5.00;70.90;;;;;;4923608;28;120488;-91
2021/01/16 00:54:35;;;;;;;;;;;5.00;70.90;;;;;;4924306;28;117475;-90
2021/01/16 00:57:01;;;;;;;;;;;5.00;70.90;;;;;;4924313;28;117916;-91
2021/01/16 00:59:26;;;;;;;;;;;5.00;70.90;;;;;;4923339;28;120017;-91
2021/01/16 01:01:52;;;;;;;;;;;5.00;70.80;;;;;;4923749;28;120420;-91
2021/01/16 01:04:17;;;;;;;;;;;5.00;70.80;;;;;;4924091;28;117616;-91
2021/01/16 01:06:43;;;;;;;;;;;4.90;70.90;;;;;;4924173;28;117443;-91
2021/01/16 01:09:08;;;;;;;;;;;5.00;71.00;;;;;;4923565;28;121536;-91
2021/01/16 01:11:34;;;;;;;;;;;5.00;70.90;;;;;;4923412;28;119365;-91
2021/01/16 01:14:00;;;;;;;;;;;5.00;70.80;;;;;;4924190;28;117649;-91
2021/01/16 01:16:25;;;;;;;;;;;5.00;70.90;;;;;;4924311;28;117784;-91
2021/01/16 01:18:51;;;;;;;;;;;5.00;70.90;;;;;;4923258;28;120162;-91
2021/01/16 01:21:16;;;;;;;;;;;5.00;70.90;;;;;;4923321;28;119019;-91
2021/01/16 01:23:42;;;;;;;;;;;5.00;70.80;;;;;;4924543;28;116632;-91
2021/01/16 01:26:46;;;;;;;;;;;5.00;71.50;;;;;;4924229;28;116907;-91
2021/01/16 01:29:11;;;;;;;;;;;5.00;70.90;;;;;;4923459;28;120455;-91
2021/01/16 01:31:37;;;;;;;;;;;5.00;70.90;;;;;;4923159;28;119318;-91
2021/01/16 01:34:03;;;;;;;;;;;5.00;70.80;;;;;;4923807;28;117419;-91
2021/01/16 01:36:28;;;;;;;;;;;5.00;70.80;;;;;;4924136;28;117292;-91
2021/01/16 01:39:22;;;;;;;;;;;;;;;;;;;;;
2021/01/16 01:41:48;;;;;;;;;;;5.00;70.90;;;;;;4923391;28;148208;-91
2021/01/16 01:44:13;;;;;;;;;;;5.00;71.60;;;;;;4923518;28;117366;-91
2021/01/16 01:46:39;;;;;;;;;;;5.00;70.90;;;;;;4923880;28;116936;-91
2021/01/16 01:49:05;;;;;;;;;;;5.00;71.00;;;;;;4922887;28;120333;-91
2021/01/16 01:51:31;;;;;;;;;;;5.00;70.90;;;;;;4923073;28;118802;-91
2021/01/16 01:53:56;;;;;;;;;;;5.00;70.80;;;;;;4923585;28;116887;-91
2021/01/16 01:56:22;;;;;;;;;;;4.90;70.80;;;;;;4923979;28;117885;-91
2021/01/16 01:58:48;;;;;;;;;;;5.00;71.00;;;;;;4922740;28;120074;-90
2021/01/16 02:01:13;;;;;;;;;;;4.90;70.90;;;;;;4922843;28;118809;-91
2021/01/16 02:03:39;;;;;;;;;;;5.00;71.50;;;;;;4923486;28;117435;-91
2021/01/16 02:06:05;;;;;;;;;;;5.00;70.90;;;;;;4923397;28;116988;-91
2021/01/16 02:08:30;;;;;;;;;;;5.00;70.90;;;;;;4922725;28;120398;-91
2021/01/16 02:10:56;;;;;;;;;;;5.00;70.90;;;;;;4922418;28;119431;-91
2021/01/16 02:13:21;;;;;;;;;;;5.00;70.90;;;;;;4923170;28;117357;-91
2021/01/16 09:52:55;;;;;;;;;;;4.80;70.80;;;;;;4984962;28;116683;-93
2021/01/16 09:55:54;;;;;;;;;;;4.80;70.70;;;;;;4977500;28;117740;-93
2021/01/16 09:58:56;;;;;;;;;;;4.80;70.70;;;;;;4929904;28;116846;-93
2021/01/16 10:01:59;;;;;;;;;;;4.80;70.80;;;;;;4903322;28;116697;-93
2021/01/16 10:08:21;;;;;;;;;;;4.80;70.70;;;;;;4883073;28;117736;-92
2021/01/16 10:11:37;;;;;;;;;;;4.80;70.70;;;;;;4864556;28;116955;-93
2021/01/16 10:17:49;;;;;;;;;;;4.80;70.80;;;;;;4865632;28;116720;-93
2021/01/16 10:20:42;;;;;;;;;;;4.80;70.70;;;;;;4864459;28;117512;-93
2021/01/16 10:26:39;;;;;;;;;;;4.90;70.90;;;;;;4851365;28;117550;-93
2021/01/16 10:29:04;;;;;;;;;;;4.80;70.70;;;;;;4850644;28;117104;-91
2021/01/16 10:31:31;;;;;;;;;;;4.80;70.80;;;;;;4912268;28;117295;-90
2021/01/16 10:34:06;;;;;;;;;;;4.80;70.80;;;;;;4929376;28;119399;-90
2021/01/16 10:36:32;;;;;;;;;;;4.80;70.70;;;;;;4948980;28;117350;-90
2021/01/16 10:38:57;;;;;;;;;;;4.80;70.70;;;;;;4949601;28;117512;-91
2021/01/16 10:41:32;;;;;;;;;;;4.80;70.70;;;;;;4948387;28;121322;-90
2021/01/16 10:44:02;;;;;;;;;;;4.80;70.70;;;;;;4964340;28;119375;-90
2021/01/16 10:46:30;;;;;;;;;;;4.80;70.70;;;;;;4949133;28;116540;-91
2021/01/16 10:49:14;;;;;;;;;;;4.80;70.80;;;;;;4949993;28;117375;-91
2021/01/16 10:51:40;;;;;;;;;;;4.80;70.70;;;;;;4982810;28;117578;-91
2021/01/16 10:54:09;;;;;;;;;;;4.90;70.80;;;;;;4948086;28;119283;-91
2021/01/16 10:56:35;;;;;;;;;;;4.80;70.70;;;;;;4965502;28;116592;-91
2021/01/16 10:59:07;;;;;;;;;;;4.80;70.70;;;;;;4951255;28;117362;-91
2021/01/16 11:01:59;;;;;;;;;;;4.80;70.70;;;;;;4951755;28;120201;-91
2021/01/16 11:04:26;;;;;;;;;;;4.80;70.60;;;;;;4964969;28;119505;-91
2021/01/16 11:06:51;;;;;;;;;;;4.80;70.60;;;;;;4952121;28;116762;-90
2021/01/16 11:09:35;;;;;;;;;;;4.80;70.60;;;;;;4969297;28;116874;-91
2021/01/16 11:12:01;;;;;;;;;;;4.80;70.70;;;;;;4968075;28;120172;-91
2021/01/16 11:14:39;;;;;;;;;;;4.80;70.60;;;;;;4951673;28;119515;-91
2021/01/16 11:17:05;;;;;;;;;;;4.80;70.60;;;;;;4952123;28;117011;-91
2021/01/16 11:19:32;;;;;;;;;;;4.80;70.60;;;;;;4952463;28;116860;-91
2021/01/16 11:21:57;;;;;;;;;;;4.80;70.60;;;;;;4951427;28;120064;-91
2021/01/16 11:24:35;;;;;;;;;;;4.90;70.70;;;;;;4951507;28;119388;-91
2021/01/16 11:27:02;;;;;;;;;;;4.80;70.60;;;;;;4968009;28;116634;-91
2021/01/16 11:29:30;;;;;;;;;;;4.80;70.60;;;;;;4952328;28;116831;-91
2021/01/16 11:31:55;;;;;;;;;;;4.80;70.60;;;;;;4967459;28;119083;-91
2021/01/16 11:34:21;;;;;;;;;;;4.80;70.60;;;;;;4951348;28;119424;-91
2021/01/16 11:37:04;;;;;;;;;;;4.80;70.60;;;;;;4954340;28;116578;-91
2021/01/16 11:39:42;;;;;;;;;;;4.90;70.60;;;;;;4953716;28;116907;-91
2021/01/16 11:42:08;;;;;;;;;;;4.80;70.60;;;;;;4970507;28;120171;-91
2021/01/16 11:44:52;;;;;;;;;;;4.80;70.60;;;;;;4951800;28;118634;-91
2021/01/16 11:47:18;;;;;;;;;;;4.80;70.50;;;;;;4951751;28;116542;-91
2021/01/16 11:49:44;;;;;;;;;;;4.80;70.60;;;;;;4952592;28;116747;-91
2021/01/16 11:52:10;;;;;;;;;;;4.80;70.80;;;;;;4950851;28;120190;-91
2021/01/16 11:54:35;;;;;;;;;;;4.80;70.60;;;;;;4951242;28;119513;-92
2021/01/16 11:57:01;;;;;;;;;;;4.80;70.50;;;;;;4951526;28;117447;-91
2021/01/16 11:59:26;;;;;;;;;;;4.80;70.60;;;;;;4951987;28;116971;-91
2021/01/16 12:01:52;;;;;;;;;;;4.90;70.60;;;;;;4950923;28;120425;-91
2021/01/16 12:04:17;;;;;;;;;;;4.80;70.60;;;;;;4950732;28;119115;-91
2021/01/16 12:06:43;;;;;;;;;;;4.80;70.60;;;;;;4951139;28;116697;-91
2021/01/16 12:09:08;;;;;;;;;;;4.80;70.50;;;;;;4951762;28;117997;-91
2021/01/16 12:11:34;;;;;;;;;;;4.80;70.60;;;;;;4949456;28;120073;-91
2021/01/16 12:13:59;;;;;;;;;;;4.80;70.40;;;;;;4951028;28;119483;-91
2021/01/16 12:16:26;;;;;;;;;;;4.80;70.50;;;;;;4951098;28;117047;-91
2021/01/16 12:18:51;;;;;;;;;;;4.80;70.50;;;;;;4951412;28;117057;-91
2021/01/16 12:21:17;;;;;;;;;;;4.80;70.40;;;;;;4950365;28;120098;-91
2021/01/16 12:23:45;;;;;;;;;;;4.80;70.50;;;;;;4950544;28;119257;-91
2021/01/16 12:26:12;;;;;;;;;;;4.80;71.10;;;;;;4951454;28;116805;-91
2021/01/16 12:28:38;;;;;;;;;;;4.80;70.40;;;;;;4952043;28;116885;-91
2021/01/16 12:31:04;;;;;;;;;;;4.80;70.40;;;;;;4950251;28;120567;-91
2021/01/16 12:33:33;;;;;;;;;;;4.80;70.40;;;;;;4950140;28;118917;-91
2021/01/16 12:36:08;;;;;;;;;;;4.80;70.40;;;;;;4951279;28;117285;-91
2021/01/16 12:38:33;;;;;;;;;;;4.80;70.50;;;;;;4951414;28;116849;-91
2021/01/16 12:40:59;;;;;;;;;;;4.80;70.40;;;;;;4965432;28;120471;-93
2021/01/16 12:43:24;;;;;;;;;;;4.80;70.40;;;;;;4964407;28;119164;-92
2021/01/16 12:45:50;;;;;;;;;;;4.90;70.40;;;;;;4953366;28;116712;-90
2021/01/16 12:48:15;;;;;;;;;;;4.80;70.40;;;;;;4953765;28;118047;-91
2021/01/16 12:50:41;;;;;;;;;;;4.80;70.50;;;;;;4950511;28;121524;-91
2021/01/16 12:53:06;;;;;;;;;;;4.80;70.50;;;;;;4950536;28;119618;-93
2021/01/16 12:55:32;;;;;;;;;;;4.80;70.50;;;;;;4953565;28;117525;-91
2021/01/16 12:57:59;;;;;;;;;;;4.80;70.50;;;;;;4958739;28;116974;-91
2021/01/16 13:00:25;;;;;;;;;;;4.80;70.40;;;;;;4951499;28;120490;-90
2021/01/16 13:02:54;;;;;;;;;;;4.80;70.40;;;;;;4951435;28;119496;-92
2021/01/16 13:05:21;;;;;;;;;;;4.80;70.40;;;;;;4951195;28;117574;-87
2021/01/16 13:07:47;;;;;;;;;;;4.80;70.40;;;;;;4950276;28;117619;-89
2021/01/16 13:10:13;;;;;;;;;;;4.80;70.40;;;;;;4949497;28;120047;-89
2021/01/16 13:12:40;;;;;;;;;;;4.80;70.40;;;;;;4949653;28;120431;-89
2021/01/16 13:15:06;;;;;;;;;;;4.80;70.40;;;;;;4950036;28;117365;-89
2021/01/16 13:17:34;;;;;;;;;;;4.80;70.40;;;;;;4950480;28;117597;-90
2021/01/16 13:20:03;;;;;;;;;;;4.80;70.40;;;;;;4966373;28;117325;-91
2021/01/16 13:22:28;;;;;;;;;;;4.80;70.40;;;;;;4948641;28;119601;-88
2021/01/16 13:25:01;;;;;;;;;;;4.80;70.40;;;;;;4950126;28;117404;-89
2021/01/16 13:27:26;;;;;;;;;;;4.80;70.40;;;;;;4950285;28;117532;-89
2021/01/16 13:29:53;;;;;;;;;;;4.80;70.40;;;;;;4949109;28;120671;-89
2021/01/16 13:32:22;;;;;;;;;;;4.80;70.30;;;;;;4949305;28;121019;-89
2021/01/16 13:34:54;;;;;;;;;;;4.80;70.30;;;;;;4966476;28;117651;-89
2021/01/16 13:37:21;;;;;;;;;;;4.80;70.40;;;;;;4950131;28;117290;-89
2021/01/16 13:39:47;;;;;;;;;;;4.80;70.40;;;;;;4949174;28;118353;-89
2021/01/16 13:42:18;;;;;;;;;;;4.80;70.30;;;;;;4949276;28;119639;-90
2021/01/16 13:44:53;;;;;;;;;;;4.80;70.30;;;;;;4951057;28;117492;-92
2021/01/16 13:50:41;;;;;;;;;;;4.80;70.30;;;;;;4982996;28;116936;-91
2021/01/16 13:53:10;;;;;;;;;;;4.80;70.20;;;;;;4940376;28;117251;-91
2021/01/16 13:55:36;;;;;;;;;;;4.80;70.30;;;;;;4942548;28;116929;-89
2021/01/16 13:58:02;;;;;;;;;;;4.80;70.40;;;;;;4937014;28;117836;-87
2021/01/16 14:00:30;;;;;;;;;;;4.80;70.30;;;;;;4965163;28;121093;-87
2021/01/16 14:02:56;;;;;;;;;;;4.80;70.30;;;;;;4948884;28;120357;-88
2021/01/16 14:05:26;;;;;;;;;;;4.80;70.20;;;;;;4949633;28;117433;-88
2021/01/16 14:07:52;;;;;;;;;;;4.80;70.30;;;;;;4949691;28;117234;-88
2021/01/16 14:10:37;;;;;;;;;;;4.80;70.20;;;;;;4948505;28;120984;-88
2021/01/16 14:13:07;;;;;;;;;;;4.80;70.30;;;;;;4964181;28;119542;-88
2021/01/16 14:15:33;;;;;;;;;;;4.80;70.30;;;;;;4949261;28;117702;-88
2021/01/16 14:17:58;;;;;;;;;;;4.80;70.30;;;;;;4949722;28;117856;-88
2021/01/16 14:20:31;;;;;;;;;;;4.80;70.20;;;;;;4948934;28;120035;-88
2021/01/16 14:22:56;;;;;;;;;;;4.80;70.30;;;;;;4948270;28;120811;-88
2021/01/16 14:25:25;;;;;;;;;;;4.80;70.30;;;;;;4948579;28;117603;-88
2021/01/16 14:27:51;;;;;;;;;;;4.80;70.30;;;;;;4949750;28;117737;-88
2021/01/16 14:30:18;;;;;;;;;;;4.80;70.30;;;;;;4948507;28;121660;-88
2021/01/16 14:32:43;;;;;;;;;;;4.80;70.20;;;;;;4948301;28;119612;-87
2021/01/16 14:35:16;;;;;;;;;;;4.80;70.20;;;;;;4952017;28;117424;-88
2021/01/16 14:37:41;;;;;;;;;;;4.80;70.20;;;;;;4952711;28;117738;-88
2021/01/16 14:40:07;;;;;;;;;;;4.80;70.20;;;;;;4951950;28;119966;-88
2021/01/16 14:42:32;;;;;;;;;;;4.80;70.20;;;;;;4951540;28;120045;-88
2021/01/16 14:44:59;;;;;;;;;;;4.80;70.20;;;;;;4952176;28;117421;-88
2021/01/16 14:47:25;;;;;;;;;;;4.80;70.20;;;;;;4952547;28;117820;-88
2021/01/16 14:49:50;;;;;;;;;;;4.80;70.30;;;;;;4951510;28;121048;-88
2021/01/16 14:52:18;;;;;;;;;;;4.80;70.10;;;;;;4951331;28;120444;-88
2021/01/16 14:54:47;;;;;;;;;;;4.80;70.70;;;;;;4952024;28;117773;-87
2021/01/16 14:57:13;;;;;;;;;;;4.80;70.10;;;;;;4969010;28;117753;-88
2021/01/16 14:59:40;;;;;;;;;;;4.80;70.20;;;;;;4951106;28;121122;-88
2021/01/16 15:02:18;;;;;;;;;;;4.80;70.10;;;;;;4951141;28;120509;-88
2021/01/16 15:04:45;;;;;;;;;;;4.80;70.20;;;;;;4952096;28;117533;-90
2021/01/16 15:07:23;;;;;;;;;;;4.80;70.10;;;;;;4986391;28;117321;-89
2021/01/16 15:09:54;;;;;;;;;;;4.80;70.00;;;;;;4951207;28;120739;-89
2021/01/16 15:12:19;;;;;;;;;;;4.80;70.00;;;;;;4951294;28;119504;-89
2021/01/16 15:14:45;;;;;;;;;;;4.80;69.90;;;;;;4951689;28;117362;-89
2021/01/16 15:17:11;;;;;;;;;;;4.80;70.00;;;;;;4952091;28;117891;-89
2021/01/16 15:19:38;;;;;;;;;;;4.80;70.00;;;;;;4951221;28;120377;-89
2021/01/16 15:22:05;;;;;;;;;;;4.80;70.00;;;;;;4950918;28;120322;-89
2021/01/16 15:24:31;;;;;;;;;;;4.80;70.00;;;;;;4951651;28;117374;-89
2021/01/16 15:26:57;;;;;;;;;;;4.80;70.00;;;;;;4951859;28;117807;-89
2021/01/16 15:29:23;;;;;;;;;;;4.80;69.90;;;;;;4950796;28;121410;-89
2021/01/16 15:31:49;;;;;;;;;;;4.80;70.00;;;;;;4950755;28;118081;-89
2021/01/16 15:34:18;;;;;;;;;;;4.80;70.00;;;;;;4968158;28;117406;-89
2021/01/16 15:36:43;;;;;;;;;;;4.80;70.00;;;;;;4951761;28;117852;-89
2021/01/16 15:39:09;;;;;;;;;;;4.80;70.10;;;;;;4950857;28;120379;-89
2021/01/16 15:41:36;;;;;;;;;;;4.80;70.10;;;;;;4967002;28;119499;-89
2021/01/16 15:44:02;;;;;;;;;;;4.80;70.10;;;;;;4968001;28;117415;-89
2021/01/16 15:46:29;;;;;;;;;;;4.80;70.10;;;;;;4968353;28;117775;-89
2021/01/16 15:49:03;;;;;;;;;;;4.80;70.00;;;;;;4950483;28;121251;-89
2021/01/16 15:51:38;;;;;;;;;;;4.80;70.00;;;;;;4950410;28;118810;-89
2021/01/16 15:54:13;;;;;;;;;;;4.80;70.00;;;;;;4951044;28;117531;-89
2021/01/16 15:56:39;;;;;;;;;;;4.80;70.10;;;;;;4951319;28;117873;-89
2021/01/16 15:59:05;;;;;;;;;;;4.80;69.90;;;;;;4950346;28;120327;-89
2021/01/16 16:01:35;;;;;;;;;;;4.80;70.00;;;;;;4950212;28;119316;-89
2021/01/16 16:04:01;;;;;;;;;;;4.70;69.90;;;;;;4950873;28;117438;-89
2021/01/16 16:06:27;;;;;;;;;;;4.80;70.00;;;;;;4951311;28;117949;-89
2021/01/16 16:08:55;;;;;;;;;;;4.80;69.90;;;;;;4950063;28;119975;-89
2021/01/16 16:11:22;;;;;;;;;;;4.80;69.90;;;;;;4966771;28;118790;-89
2021/01/16 16:13:50;;;;;;;;;;;4.80;69.90;;;;;;4967200;28;117491;-89
2021/01/16 16:16:18;;;;;;;;;;;4.80;69.90;;;;;;4967199;28;117829;-89
2021/01/16 16:18:44;;;;;;;;;;;4.80;70.00;;;;;;4950542;28;117589;-89
2021/01/16 16:21:10;;;;;;;;;;;4.80;69.90;;;;;;4949840;28;120629;-89
2021/01/16 16:23:36;;;;;;;;;;;4.70;69.90;;;;;;4950645;28;117237;-89
2021/01/16 16:26:05;;;;;;;;;;;4.80;69.90;;;;;;4967814;28;117232;-89
2021/01/16 16:28:31;;;;;;;;;;;4.80;70.00;;;;;;4949896;28;117603;-90
2021/01/16 16:31:00;;;;;;;;;;;4.80;70.00;;;;;;4950130;28;118752;-90
2021/01/16 16:33:25;;;;;;;;;;;4.70;69.90;;;;;;4965971;28;117853;-90
2021/01/16 16:35:51;;;;;;;;;;;4.70;69.90;;;;;;4951188;28;117365;-91
2021/01/16 16:38:18;;;;;;;;;;;4.70;69.90;;;;;;4949839;28;121230;-91
2021/01/16 16:40:44;;;;;;;;;;;4.80;69.90;;;;;;4949971;28;119430;-91
2021/01/16 16:43:10;;;;;;;;;;;4.80;69.90;;;;;;4950428;28;117524;-91
2021/01/16 16:45:36;;;;;;;;;;;4.80;69.90;;;;;;4951046;28;116907;-91
2021/01/16 16:48:01;;;;;;;;;;;4.80;69.90;;;;;;4949489;28;120110;-91
2021/01/16 16:50:27;;;;;;;;;;;4.70;69.80;;;;;;4966182;28;117524;-91
2021/01/16 16:52:54;;;;;;;;;;;4.70;69.80;;;;;;4950308;28;117564;-91
2021/01/16 16:55:19;;;;;;;;;;;4.70;69.80;;;;;;4950722;28;117409;-91
2021/01/16 16:57:46;;;;;;;;;;;4.70;69.90;;;;;;4949064;28;120371;-90
2021/01/16 17:00:12;;;;;;;;;;;4.70;69.70;;;;;;4949616;28;119334;-91
2021/01/16 17:02:38;;;;;;;;;;;4.80;69.80;;;;;;4950272;28;117482;-91
2021/01/16 17:05:04;;;;;;;;;;;4.80;69.90;;;;;;4950656;28;117227;-91
2021/01/16 17:07:29;;;;;;;;;;;4.70;69.80;;;;;;4950357;28;119878;-93
2021/01/16 17:10:11;;;;;;;;;;;4.70;69.70;;;;;;4957168;28;119692;-95
2021/01/16 17:12:39;;;;;;;;;;;4.70;69.70;;;;;;4973265;28;116669;-94
2021/01/16 17:15:06;;;;;;;;;;;4.70;69.90;;;;;;4960436;28;116764;-94
2021/01/16 17:17:35;;;;;;;;;;;4.70;69.90;;;;;;4961161;28;120148;-95
2021/01/16 17:20:05;;;;;;;;;;;4.70;69.90;;;;;;4960889;28;119484;-94
2021/01/16 17:22:31;;;;;;;;;;;4.70;69.70;;;;;;4963876;28;116683;-95
2021/01/16 17:24:59;;;;;;;;;;;4.70;69.60;;;;;;4965263;28;116998;-95
2021/01/16 17:27:28;;;;;;;;;;;4.70;69.60;;;;;;4965488;28;120212;-95
2021/01/16 17:29:56;;;;;;;;;;;4.70;69.60;;;;;;4966241;28;119764;-95
2021/01/16 17:32:24;;;;;;;;;;;4.70;69.50;;;;;;4967114;28;116537;-95
2021/01/16 17:34:53;;;;;;;;;;;4.70;69.70;;;;;;4966815;28;116832;-95
2021/01/16 17:37:25;;;;;;;;;;;4.70;69.60;;;;;;4965135;28;120551;-94
2021/01/16 17:39:51;;;;;;;;;;;4.70;69.50;;;;;;4957624;28;116963;-94
2021/01/16 17:42:16;;;;;;;;;;;4.70;69.50;;;;;;4956984;28;116645;-94
2021/01/16 17:44:42;;;;;;;;;;;4.70;69.70;;;;;;4958842;28;116880;-94
2021/01/16 17:47:11;;;;;;;;;;;4.70;69.60;;;;;;4955042;28;120660;-94
2021/01/16 17:49:37;;;;;;;;;;;4.70;69.60;;;;;;4958380;28;119498;-94
2021/01/16 17:52:06;;;;;;;;;;;4.70;69.70;;;;;;4957231;28;116658;-95
2021/01/16 17:54:35;;;;;;;;;;;4.70;69.60;;;;;;4955287;28;116868;-94
2021/01/16 17:57:03;;;;;;;;;;;4.70;69.60;;;;;;4953428;28;120293;-95
2021/01/16 17:59:46;;;;;;;;;;;4.80;69.70;;;;;;4953395;28;119793;-94
2021/01/16 18:02:36;;;;;;;;;;;4.70;69.60;;;;;;4958197;28;116613;-94
2021/01/16 18:05:15;;;;;;;;;;;4.80;69.70;;;;;;4963185;28;117109;-94
2021/01/16 18:07:50;;;;;;;;;;;4.70;69.50;;;;;;4970555;28;117861;-95
2021/01/16 18:10:30;;;;;;;;;;;4.70;69.60;;;;;;4956969;28;117050;-95
2021/01/16 18:12:58;;;;;;;;;;;4.70;69.70;;;;;;4962129;28;116723;-94
2021/01/16 18:15:31;;;;;;;;;;;4.70;69.50;;;;;;4954802;28;116835;-94
2021/01/16 18:18:02;;;;;;;;;;;4.70;69.50;;;;;;4953016;28;120165;-94
2021/01/16 18:20:30;;;;;;;;;;;4.80;69.60;;;;;;4952641;28;119570;-93
2021/01/16 18:23:07;;;;;;;;;;;4.70;69.60;;;;;;4952648;28;116679;-93
2021/01/16 18:25:33;;;;;;;;;;;4.70;69.60;;;;;;4953847;28;116819;-94
2021/01/16 18:28:02;;;;;;;;;;;4.70;69.50;;;;;;4951694;28;120139;-94
2021/01/16 18:30:30;;;;;;;;;;;4.70;69.60;;;;;;4952271;28;119368;-93
2021/01/16 18:32:56;;;;;;;;;;;4.70;69.60;;;;;;4953558;28;116569;-93
2021/01/16 18:35:24;;;;;;;;;;;4.80;69.60;;;;;;4953429;28;116979;-94
2021/01/16 18:37:58;;;;;;;;;;;4.80;69.60;;;;;;4952309;28;119704;-94
2021/01/16 18:40:27;;;;;;;;;;;4.70;69.60;;;;;;4952711;28;119482;-94
2021/01/16 18:42:53;;;;;;;;;;;4.80;69.60;;;;;;4952723;28;116678;-94
2021/01/16 18:45:22;;;;;;;;;;;4.80;69.70;;;;;;4953269;28;116907;-94
2021/01/16 18:47:52;;;;;;;;;;;4.80;69.70;;;;;;4951877;28;120534;-94
2021/01/16 18:50:18;;;;;;;;;;;4.70;69.50;;;;;;4952167;28;119318;-94
2021/01/16 18:52:47;;;;;;;;;;;4.80;69.50;;;;;;4952486;28;116633;-93
2021/01/16 18:55:12;;;;;;;;;;;4.80;69.50;;;;;;4952918;28;116916;-93
2021/01/16 18:57:47;;;;;;;;;;;4.80;69.60;;;;;;4951642;28;120425;-93
2021/01/16 19:00:13;;;;;;;;;;;4.80;69.50;;;;;;4952884;28;119556;-93
2021/01/16 19:02:38;;;;;;;;;;;4.80;69.60;;;;;;4952430;28;116587;-93
2021/01/16 19:05:04;;;;;;;;;;;4.80;69.40;;;;;;4952746;28;116952;-93
2021/01/16 19:07:30;;;;;;;;;;;4.80;69.50;;;;;;4951421;28;120144;-93
2021/01/16 19:10:04;;;;;;;;;;;4.80;69.50;;;;;;4951544;28;119500;-93
2021/01/16 19:12:30;;;;;;;;;;;4.80;70.30;;;;;;4952534;28;117369;-93
2021/01/16 19:14:59;;;;;;;;;;;4.80;69.50;;;;;;4952913;28;116953;-94
2021/01/16 19:17:25;;;;;;;;;;;4.80;69.60;;;;;;4951571;28;120281;-93
2021/01/16 19:19:50;;;;;;;;;;;4.80;69.60;;;;;;4951057;28;119383;-93
2021/01/16 19:22:18;;;;;;;;;;;4.70;69.60;;;;;;4952162;28;116640;-93
2021/01/16 19:24:44;;;;;;;;;;;4.80;69.50;;;;;;4952776;28;116848;-93
2021/01/16 19:27:10;;;;;;;;;;;4.80;69.40;;;;;;4951433;28;119671;-93
2021/01/16 19:29:35;;;;;;;;;;;4.80;69.60;;;;;;4951084;28;119373;-93
2021/01/16 19:32:01;;;;;;;;;;;4.80;69.60;;;;;;4952033;28;116754;-94
2021/01/16 19:34:27;;;;;;;;;;;4.70;69.50;;;;;;4952239;28;116815;-93
2021/01/16 19:36:52;;;;;;;;;;;4.80;69.60;;;;;;4950662;28;119708;-93
2021/01/16 19:39:18;;;;;;;;;;;4.70;69.50;;;;;;4951059;28;119351;-93
2021/01/16 19:41:47;;;;;;;;;;;4.80;69.50;;;;;;4951785;28;117735;-93
2021/01/16 19:44:13;;;;;;;;;;;4.80;69.60;;;;;;4952297;28;116916;-93
2021/01/16 19:46:39;;;;;;;;;;;4.70;69.60;;;;;;4950597;28;120253;-93
2021/01/16 19:49:11;;;;;;;;;;;4.80;69.50;;;;;;4950500;28;120555;-93
2021/01/16 19:51:37;;;;;;;;;;;4.80;69.50;;;;;;4952215;28;116620;-93
2021/01/16 19:54:03;;;;;;;;;;;4.80;69.50;;;;;;4951824;28;116860;-93
2021/01/16 19:56:29;;;;;;;;;;;4.80;69.50;;;;;;4950497;28;119718;-94
2021/01/16 19:58:54;;;;;;;;;;;4.70;69.50;;;;;;4950681;28;119027;-94
2021/01/16 20:01:22;;;;;;;;;;;4.80;69.50;;;;;;4951404;28;116587;-93
2021/01/16 20:03:47;;;;;;;;;;;4.70;69.50;;;;;;4952082;28;116856;-93
2021/01/16 20:06:16;;;;;;;;;;;4.80;69.60;;;;;;4950449;28;120409;-93
2021/01/16 20:08:42;;;;;;;;;;;4.70;69.60;;;;;;4950673;28;119348;-93
2021/01/16 20:11:08;;;;;;;;;;;4.80;69.50;;;;;;4951212;28;116668;-93
2021/01/16 20:13:33;;;;;;;;;;;4.80;69.60;;;;;;4952031;28;116900;-93
2021/01/16 20:15:59;;;;;;;;;;;4.80;69.50;;;;;;4950325;28;119940;-93
2021/01/16 20:18:24;;;;;;;;;;;4.80;69.40;;;;;;4950389;28;119641;-93
2021/01/16 20:20:53;;;;;;;;;;;4.70;69.40;;;;;;4951346;28;116565;-93
2021/01/16 20:23:24;;;;;;;;;;;4.70;69.50;;;;;;4951291;28;117013;-93
2021/01/16 20:25:49;;;;;;;;;;;4.70;69.40;;;;;;4950420;28;120414;-93
2021/01/16 20:28:15;;;;;;;;;;;4.70;69.50;;;;;;4950083;28;120168;-94
2021/01/16 20:30:41;;;;;;;;;;;4.70;69.50;;;;;;4950018;28;116528;-93
2021/01/16 20:33:06;;;;;;;;;;;4.70;69.40;;;;;;4951252;28;116919;-93
2021/01/16 20:35:33;;;;;;;;;;;4.80;69.40;;;;;;4950078;28;120101;-93
2021/01/16 20:38:01;;;;;;;;;;;4.70;69.40;;;;;;4950295;28;119466;-93
2021/01/16 20:40:39;;;;;;;;;;;4.70;69.40;;;;;;4951494;28;116546;-93
2021/01/16 20:43:04;;;;;;;;;;;4.70;69.40;;;;;;4951480;28;116812;-93
2021/01/16 20:45:30;;;;;;;;;;;4.70;69.30;;;;;;4949894;28;120055;-93
2021/01/16 20:47:55;;;;;;;;;;;4.70;69.30;;;;;;4949804;28;119183;-93
2021/01/16 20:50:22;;;;;;;;;;;4.70;69.40;;;;;;4950784;28;116703;-93
2021/01/16 20:52:47;;;;;;;;;;;4.70;69.30;;;;;;4951151;28;116965;-93
2021/01/16 20:55:16;;;;;;;;;;;4.70;69.40;;;;;;4949878;28;120364;-93
2021/01/16 20:57:42;;;;;;;;;;;4.70;69.40;;;;;;4949724;28;119360;-93
2021/01/16 21:00:08;;;;;;;;;;;4.70;69.40;;;;;;4950675;28;116561;-93
2021/01/16 21:02:34;;;;;;;;;;;4.70;69.40;;;;;;4951104;28;116951;-94
2021/01/16 21:05:00;;;;;;;;;;;4.70;69.50;;;;;;4950062;28;119634;-94
2021/01/16 21:07:26;;;;;;;;;;;4.70;69.50;;;;;;4949653;28;119481;-93
2021/01/16 21:09:51;;;;;;;;;;;4.70;69.40;;;;;;4950597;28;116621;-93
2021/01/16 21:12:17;;;;;;;;;;;4.70;69.40;;;;;;4950722;28;116872;-93
2021/01/16 21:14:42;;;;;;;;;;;4.70;69.40;;;;;;4949833;28;121120;-93
2021/01/16 21:17:08;;;;;;;;;;;4.70;69.40;;;;;;4949013;28;119362;-93
2021/01/16 21:19:33;;;;;;;;;;;4.70;69.40;;;;;;4950168;28;116774;-93
2021/01/16 21:21:59;;;;;;;;;;;4.70;69.40;;;;;;4950817;28;116828;-93
2021/01/16 21:24:25;;;;;;;;;;;4.70;69.40;;;;;;4949361;28;120237;-93
2021/01/16 21:26:54;;;;;;;;;;;4.70;69.30;;;;;;4949343;28;119499;-93
2021/01/16 21:29:20;;;;;;;;;;;4.80;69.50;;;;;;4950244;28;116644;-93
2021/01/16 21:31:46;;;;;;;;;;;4.70;69.40;;;;;;4950546;28;116848;-94
2021/01/16 21:34:11;;;;;;;;;;;4.70;69.40;;;;;;4949666;28;120138;-93
2021/01/16 21:36:37;;;;;;;;;;;4.70;69.40;;;;;;4948971;28;118914;-93
2021/01/16 21:39:03;;;;;;;;;;;4.70;69.30;;;;;;4950180;28;116554;-93
2021/01/16 21:41:29;;;;;;;;;;;4.70;69.30;;;;;;4950321;28;116955;-93
2021/01/16 21:43:54;;;;;;;;;;;4.70;69.30;;;;;;4949062;28;120183;-93
2021/01/16 21:46:20;;;;;;;;;;;4.70;69.40;;;;;;4949000;28;119012;-93
2021/01/16 21:48:45;;;;;;;;;;;4.70;69.40;;;;;;4949835;28;116716;-93
2021/01/16 21:51:13;;;;;;;;;;;4.70;69.30;;;;;;4950373;28;116886;-93
2021/01/16 21:53:38;;;;;;;;;;;4.70;69.30;;;;;;4949031;28;120082;-93
2021/01/16 21:56:04;;;;;;;;;;;4.70;69.40;;;;;;4948856;28;119533;-94
2021/01/16 21:58:29;;;;;;;;;;;4.70;69.40;;;;;;4949825;28;116562;-93
2021/01/16 22:00:55;;;;;;;;;;;4.70;69.30;;;;;;4950126;28;116890;-94
2021/01/16 22:03:20;;;;;;;;;;;4.70;69.40;;;;;;4948815;28;120041;-93
2021/01/16 22:05:46;;;;;;;;;;;4.70;69.30;;;;;;4948950;28;119362;-93
2021/01/16 22:08:14;;;;;;;;;;;4.70;69.40;;;;;;4949621;28;116821;-93
2021/01/16 22:10:40;;;;;;;;;;;4.70;69.40;;;;;;4950267;28;116797;-93
2021/01/16 22:13:06;;;;;;;;;;;4.70;69.40;;;;;;4949136;28;119840;-93
2021/01/16 22:15:34;;;;;;;;;;;4.70;69.40;;;;;;4948903;28;119231;-93